createdAt,value
2023-01-19T00:00:38.960Z,1.60
2023-01-19T00:01:38.829Z,1.64
2023-01-19T00:02:38.797Z,1.66
2023-01-19T00:03:38.743Z,1.60
2023-01-19T00:04:39.146Z,1.66
2023-01-19T00:05:39.145Z,1.64
2023-01-19T00:06:39.152Z,1.63
2023-01-19T00:07:38.684Z,1.57
2023-01-19T00:08:39.162Z,1.59
2023-01-19T00:09:39.171Z,1.56
2023-01-19T00:10:38.681Z,1.53
2023-01-19T00:11:39.185Z,1.52
2023-01-19T00:12:38.663Z,1.52
2023-01-19T00:13:38.664Z,1.49
2023-01-19T00:14:38.660Z,1.52
2023-01-19T00:15:38.690Z,1.46
2023-01-19T00:16:38.650Z,1.49
2023-01-19T00:17:38.639Z,1.52
2023-01-19T00:18:38.691Z,1.53
2023-01-19T00:19:38.741Z,1.55
2023-01-19T00:20:38.648Z,1.56
2023-01-19T00:21:38.851Z,1.53
2023-01-19T00:22:38.613Z,1.48
2023-01-19T00:23:38.932Z,1.45
2023-01-19T00:24:38.582Z,1.44
2023-01-19T00:25:38.948Z,1.42
2023-01-19T00:26:38.677Z,1.48
2023-01-19T00:27:39.091Z,1.53
2023-01-19T00:28:38.594Z,1.56
2023-01-19T00:29:38.707Z,1.59
2023-01-19T00:30:38.718Z,1.62
2023-01-19T00:31:38.933Z,1.63
2023-01-19T00:32:38.721Z,1.63
2023-01-19T00:33:39.995Z,1.63
2023-01-19T00:34:38.513Z,1.63
2023-01-19T00:35:38.957Z,1.62
2023-01-19T00:36:39.375Z,1.63
2023-01-19T00:37:38.753Z,1.59
2023-01-19T00:38:38.569Z,1.57
2023-01-19T00:39:39.175Z,1.57
2023-01-19T00:40:38.548Z,1.59
2023-01-19T00:41:38.750Z,1.64
2023-01-19T00:42:38.591Z,1.66
2023-01-19T00:43:38.475Z,1.62
2023-01-19T00:44:39.121Z,1.63
2023-01-19T00:45:38.533Z,1.63
2023-01-19T00:46:39.030Z,1.64
2023-01-19T00:47:38.501Z,1.62
2023-01-19T00:48:38.453Z,1.64
2023-01-19T00:49:38.460Z,1.64
2023-01-19T00:50:38.411Z,1.63
2023-01-19T00:51:38.472Z,1.62
2023-01-19T00:52:38.427Z,1.63
2023-01-19T00:53:38.469Z,1.67
2023-01-19T00:54:38.478Z,1.71
2023-01-19T00:55:38.468Z,1.74
2023-01-19T00:56:38.478Z,1.64
2023-01-19T00:57:38.549Z,1.66
2023-01-19T00:58:38.380Z,1.63
2023-01-19T00:59:38.378Z,1.67
2023-01-19T01:00:38.558Z,1.73
2023-01-19T01:01:45.085Z,1.69
2023-01-19T01:02:38.747Z,1.74
2023-01-19T01:03:38.587Z,1.71
2023-01-19T01:04:38.735Z,1.74
2023-01-19T01:05:38.595Z,1.75
2023-01-19T01:06:38.553Z,1.74
2023-01-19T01:07:38.759Z,1.73
2023-01-19T01:08:38.765Z,1.77
2023-01-19T01:09:38.347Z,1.73
2023-01-19T01:10:38.293Z,1.77
2023-01-19T01:11:38.784Z,1.81
2023-01-19T01:12:38.678Z,1.84
2023-01-19T01:13:38.281Z,1.89
2023-01-19T01:14:38.492Z,1.89
2023-01-19T01:15:38.417Z,1.89
2023-01-19T01:16:38.757Z,1.95
2023-01-19T01:17:38.321Z,1.99
2023-01-19T01:18:38.754Z,1.99
2023-01-19T01:19:38.547Z,2.07
2023-01-19T01:20:38.270Z,2.07
2023-01-19T01:21:38.250Z,2.04
2023-01-19T01:22:38.303Z,2.10
2023-01-19T01:23:38.257Z,2.07
2023-01-19T01:24:38.850Z,2.15
2023-01-19T01:25:38.284Z,2.17
2023-01-19T01:26:38.189Z,2.18
2023-01-19T01:27:38.228Z,2.18
2023-01-19T01:28:38.279Z,2.12
2023-01-19T01:29:38.220Z,2.14
2023-01-19T01:30:38.304Z,2.10
2023-01-19T01:31:38.374Z,2.12
2023-01-19T01:32:38.189Z,2.04
2023-01-19T01:33:40.520Z,2.06
2023-01-19T01:34:38.198Z,2.06
2023-01-19T01:35:38.244Z,2.03
2023-01-19T01:36:38.147Z,2.01
2023-01-19T01:37:38.147Z,1.97
2023-01-19T01:38:38.135Z,1.99
2023-01-19T01:39:38.365Z,1.95
2023-01-19T01:40:38.123Z,1.93
2023-01-19T01:41:38.423Z,1.92
2023-01-19T01:42:38.403Z,1.87
2023-01-19T01:43:38.183Z,1.82
2023-01-19T01:44:38.413Z,1.87
2023-01-19T01:45:38.530Z,1.82
2023-01-19T01:46:38.472Z,1.82
2023-01-19T01:47:38.087Z,1.84
2023-01-19T01:48:38.051Z,1.82
2023-01-19T01:49:38.237Z,1.85
2023-01-19T01:50:38.485Z,1.87
2023-01-19T01:51:38.552Z,1.87
2023-01-19T01:52:38.051Z,1.93
2023-01-19T01:53:38.538Z,2.03
2023-01-19T01:54:38.060Z,2.03
2023-01-19T01:55:38.038Z,2.06
2023-01-19T01:56:38.036Z,1.95
2023-01-19T01:57:38.031Z,1.97
2023-01-19T01:58:37.990Z,1.85
2023-01-19T01:59:38.032Z,1.85
2023-01-19T02:00:38.046Z,1.81
2023-01-19T02:01:38.437Z,1.85
2023-01-19T02:02:37.988Z,1.87
2023-01-19T02:03:38.329Z,1.82
2023-01-19T02:04:38.137Z,1.84
2023-01-19T02:05:38.366Z,1.85
2023-01-19T02:06:37.950Z,1.87
2023-01-19T02:07:38.146Z,1.84
2023-01-19T02:08:37.945Z,1.91
2023-01-19T02:09:37.958Z,1.91
2023-01-19T02:10:38.606Z,1.93
2023-01-19T02:11:37.923Z,1.99
2023-01-19T02:12:37.987Z,1.95
2023-01-19T02:13:38.033Z,1.95
2023-01-19T02:14:38.005Z,1.95
2023-01-19T02:15:38.206Z,1.95
2023-01-19T02:16:38.085Z,1.99
2023-01-19T02:17:38.288Z,2.00
2023-01-19T02:18:37.890Z,1.99
2023-01-19T02:19:38.023Z,2.01
2023-01-19T02:20:38.006Z,2.10
2023-01-19T02:21:37.905Z,2.11
2023-01-19T02:22:38.487Z,2.14
2023-01-19T02:23:38.471Z,2.17
2023-01-19T02:24:37.862Z,2.17
2023-01-19T02:25:38.072Z,2.14
2023-01-19T02:26:38.301Z,2.21
2023-01-19T02:27:38.079Z,2.18
2023-01-19T02:28:38.721Z,2.19
2023-01-19T02:29:37.904Z,2.15
2023-01-19T02:30:38.112Z,2.12
2023-01-19T02:31:38.698Z,2.07
2023-01-19T02:32:38.383Z,2.06
2023-01-19T02:33:38.128Z,1.95
2023-01-19T02:34:38.368Z,2.01
2023-01-19T02:35:38.835Z,2.03
2023-01-19T02:36:38.153Z,2.03
2023-01-19T02:37:37.768Z,2.04
2023-01-19T02:38:37.956Z,2.11
2023-01-19T02:39:38.448Z,2.15
2023-01-19T02:40:38.597Z,2.21
2023-01-19T02:41:37.734Z,2.24
2023-01-19T02:42:38.595Z,2.22
2023-01-19T02:43:38.585Z,2.22
2023-01-19T02:44:38.521Z,2.18
2023-01-19T02:45:37.716Z,2.18
2023-01-19T02:46:38.016Z,2.12
2023-01-19T02:47:37.821Z,2.10
2023-01-19T02:48:38.602Z,2.06
2023-01-19T02:49:37.838Z,2.01
2023-01-19T02:50:37.843Z,2.01
2023-01-19T02:51:37.844Z,2.10
2023-01-19T02:52:37.883Z,2.10
2023-01-19T02:53:37.866Z,2.10
2023-01-19T02:54:37.662Z,2.07
2023-01-19T02:55:38.075Z,2.06
2023-01-19T02:56:37.643Z,2.11
2023-01-19T02:57:37.884Z,2.12
2023-01-19T02:58:38.105Z,2.10
2023-01-19T02:59:38.113Z,2.06
2023-01-19T03:00:38.152Z,2.07
2023-01-19T03:01:37.827Z,2.03
2023-01-19T03:02:37.780Z,2.04
2023-01-19T03:03:38.138Z,2.04
2023-01-19T03:04:37.730Z,2.07
2023-01-19T03:05:38.176Z,2.10
2023-01-19T03:06:38.238Z,2.10
2023-01-19T03:07:38.573Z,2.10
2023-01-19T03:08:37.581Z,2.11
2023-01-19T03:09:37.971Z,2.17
2023-01-19T03:10:38.210Z,2.14
2023-01-19T03:11:38.417Z,2.12
2023-01-19T03:12:37.587Z,2.14
2023-01-19T03:13:37.786Z,2.11
2023-01-19T03:14:38.034Z,2.07
2023-01-19T03:15:38.586Z,2.14
2023-01-19T03:16:38.223Z,2.15
2023-01-19T03:17:37.534Z,2.17
2023-01-19T03:18:37.625Z,2.19
2023-01-19T03:19:38.442Z,2.18
2023-01-19T03:20:38.617Z,2.19
2023-01-19T03:21:37.694Z,2.21
2023-01-19T03:22:38.994Z,2.19
2023-01-19T03:23:38.315Z,2.21
2023-01-19T03:24:37.960Z,2.18
2023-01-19T03:25:37.492Z,2.14
2023-01-19T03:26:37.483Z,2.21
2023-01-19T03:27:37.502Z,2.15
2023-01-19T03:28:37.505Z,2.21
2023-01-19T03:29:37.515Z,2.19
2023-01-19T03:30:37.729Z,2.21
2023-01-19T03:31:37.718Z,2.15
2023-01-19T03:32:37.731Z,2.15
2023-01-19T03:33:37.730Z,2.15
2023-01-19T03:34:37.530Z,2.15
2023-01-19T03:35:37.555Z,2.19
2023-01-19T03:36:37.388Z,2.21
2023-01-19T03:37:37.959Z,2.22
2023-01-19T03:38:38.840Z,2.21
2023-01-19T03:39:37.367Z,2.22
2023-01-19T03:40:37.601Z,2.21
2023-01-19T03:41:37.378Z,2.15
2023-01-19T03:42:37.411Z,2.17
2023-01-19T03:43:37.429Z,2.15
2023-01-19T03:44:37.402Z,2.18
2023-01-19T03:45:37.437Z,2.18
2023-01-19T03:46:37.418Z,2.12
2023-01-19T03:47:37.328Z,2.10
2023-01-19T03:48:37.323Z,2.12
2023-01-19T03:49:37.425Z,2.12
2023-01-19T03:50:37.497Z,2.14
2023-01-19T03:51:37.473Z,2.14
2023-01-19T03:52:37.274Z,2.12
2023-01-19T03:53:37.284Z,2.10
2023-01-19T03:54:37.468Z,2.06
2023-01-19T03:55:37.272Z,2.01
2023-01-19T03:56:37.259Z,2.01
2023-01-19T03:57:37.260Z,2.04
2023-01-19T03:58:37.495Z,2.04
2023-01-19T03:59:37.513Z,2.06
2023-01-19T04:00:37.232Z,1.97
2023-01-19T04:01:37.394Z,1.97
2023-01-19T04:02:37.339Z,1.99
2023-01-19T04:03:37.456Z,2.01
2023-01-19T04:04:37.328Z,2.00
2023-01-19T04:05:37.221Z,2.01
2023-01-19T04:06:37.193Z,1.99
2023-01-19T04:07:37.363Z,1.99
2023-01-19T04:08:37.311Z,1.99
2023-01-19T04:09:37.190Z,2.00
2023-01-19T04:10:37.379Z,2.03
2023-01-19T04:11:37.369Z,2.04
2023-01-19T04:12:37.167Z,2.01
2023-01-19T04:13:37.379Z,2.07
2023-01-19T04:14:37.170Z,2.03
2023-01-19T04:15:37.261Z,2.01
2023-01-19T04:16:37.302Z,2.01
2023-01-19T04:17:37.316Z,2.01
2023-01-19T04:18:37.317Z,2.07
2023-01-19T04:19:37.218Z,2.11
2023-01-19T04:22:03.892Z,2.15
2023-01-19T04:23:04.350Z,2.17
2023-01-19T04:24:03.247Z,2.17
2023-01-19T04:25:03.066Z,2.21
2023-01-19T04:26:04.108Z,2.25
2023-01-19T04:27:04.009Z,2.29
2023-01-19T04:28:03.082Z,2.30
2023-01-19T04:29:03.038Z,2.30
2023-01-19T04:30:03.091Z,2.35
2023-01-19T04:31:03.141Z,2.35
2023-01-19T04:32:03.917Z,2.35
2023-01-19T04:33:03.532Z,2.36
2023-01-19T04:34:03.140Z,2.35
2023-01-19T04:35:03.125Z,2.35
2023-01-19T04:36:03.125Z,2.39
2023-01-19T04:37:02.994Z,2.45
2023-01-19T04:38:03.173Z,2.50
2023-01-19T04:39:03.154Z,2.51
2023-01-19T04:40:03.155Z,2.51
2023-01-19T04:41:02.969Z,2.48
2023-01-19T04:42:03.082Z,2.50
2023-01-19T04:43:03.330Z,2.50
2023-01-19T04:44:02.986Z,2.45
2023-01-19T04:45:02.957Z,2.47
2023-01-19T04:46:03.189Z,2.53
2023-01-19T04:47:02.975Z,2.55
2023-01-19T04:48:02.923Z,2.58
2023-01-19T04:49:03.141Z,2.58
2023-01-19T04:50:03.001Z,2.66
2023-01-19T04:51:02.979Z,2.66
2023-01-19T04:52:03.041Z,2.63
2023-01-19T04:53:03.430Z,2.66
2023-01-19T04:54:02.930Z,2.65
2023-01-19T04:55:03.275Z,2.66
2023-01-19T04:56:02.850Z,2.71
2023-01-19T04:57:02.948Z,2.72
2023-01-19T04:58:02.860Z,2.69
2023-01-19T04:59:02.879Z,2.68
2023-01-19T05:00:02.894Z,2.69
2023-01-19T05:01:02.898Z,2.69
2023-01-19T05:02:02.953Z,2.72
2023-01-19T05:03:03.284Z,2.71
2023-01-19T05:04:02.797Z,2.75
2023-01-19T05:05:02.936Z,2.72
2023-01-19T05:06:02.936Z,2.72
2023-01-19T05:07:02.795Z,2.75
2023-01-19T05:08:02.777Z,2.78
2023-01-19T05:09:02.806Z,2.82
2023-01-19T05:10:02.784Z,2.82
2023-01-19T05:11:02.956Z,2.84
2023-01-19T05:12:02.773Z,2.86
2023-01-19T05:13:03.505Z,2.84
2023-01-19T05:14:03.194Z,2.90
2023-01-19T05:15:02.764Z,2.87
2023-01-19T05:16:02.736Z,2.87
2023-01-19T05:17:03.202Z,2.90
2023-01-19T05:18:03.205Z,2.89
2023-01-19T05:19:03.204Z,2.91
2023-01-19T05:20:03.214Z,2.94
2023-01-19T05:21:02.692Z,2.94
2023-01-19T05:22:02.690Z,2.91
2023-01-19T05:23:03.345Z,2.94
2023-01-19T05:24:02.829Z,2.90
2023-01-19T05:25:02.681Z,2.91
2023-01-19T05:26:02.689Z,2.91
2023-01-19T05:27:03.101Z,2.91
2023-01-19T05:28:02.885Z,2.86
2023-01-19T05:29:03.099Z,2.91
2023-01-19T05:30:02.650Z,2.91
2023-01-19T05:31:02.742Z,2.90
2023-01-19T05:32:02.841Z,2.91
2023-01-19T05:33:03.417Z,2.89
2023-01-19T05:34:02.918Z,2.91
2023-01-19T05:35:02.699Z,2.86
2023-01-19T05:36:03.385Z,2.86
2023-01-19T05:37:02.726Z,2.87
2023-01-19T05:38:02.581Z,2.84
2023-01-19T05:39:02.587Z,2.86
2023-01-19T05:40:02.726Z,2.81
2023-01-19T05:41:03.366Z,2.84
2023-01-19T05:42:02.556Z,2.82
2023-01-19T05:43:03.464Z,2.87
2023-01-19T05:44:02.547Z,2.87
2023-01-19T05:45:02.767Z,2.87
2023-01-19T05:46:03.184Z,2.87
2023-01-19T05:47:02.610Z,2.84
2023-01-19T05:48:02.523Z,2.81
2023-01-19T05:49:03.444Z,2.84
2023-01-19T05:50:02.621Z,2.86
2023-01-19T05:51:03.043Z,2.84
2023-01-19T05:52:02.840Z,2.82
2023-01-19T05:53:03.737Z,2.78
2023-01-19T05:54:02.583Z,2.68
2023-01-19T05:55:03.491Z,2.57
2023-01-19T05:56:02.467Z,2.53
2023-01-19T05:57:02.472Z,2.42
2023-01-19T05:58:02.461Z,2.32
2023-01-19T05:59:02.469Z,2.12
2023-01-19T06:00:02.530Z,1.95
2023-01-19T06:01:02.475Z,1.81
2023-01-19T06:02:02.447Z,1.77
2023-01-19T06:03:03.068Z,1.67
2023-01-19T06:04:02.482Z,1.62
2023-01-19T06:05:02.478Z,1.56
2023-01-19T06:06:02.425Z,1.56
2023-01-19T06:07:02.539Z,1.53
2023-01-19T06:08:02.559Z,1.53
2023-01-19T06:09:02.397Z,1.45
2023-01-19T06:10:02.557Z,1.45
2023-01-19T06:11:02.567Z,1.45
2023-01-19T06:12:02.567Z,1.45
2023-01-19T06:13:02.756Z,1.42
2023-01-19T06:14:02.363Z,1.42
2023-01-19T06:15:02.570Z,1.44
2023-01-19T06:16:02.818Z,1.41
2023-01-19T06:17:02.779Z,1.44
2023-01-19T06:18:02.356Z,1.44
2023-01-19T06:19:02.624Z,1.39
2023-01-19T06:20:02.623Z,1.42
2023-01-19T06:21:02.844Z,1.46
2023-01-19T06:22:02.501Z,1.48
2023-01-19T06:23:02.758Z,1.46
2023-01-19T06:24:02.301Z,1.48
2023-01-19T06:25:02.412Z,1.48
2023-01-19T06:26:02.433Z,1.44
2023-01-19T06:27:02.422Z,1.42
2023-01-19T06:28:02.854Z,1.44
2023-01-19T06:29:02.269Z,1.41
2023-01-19T06:30:02.326Z,1.42
2023-01-19T06:31:02.525Z,1.39
2023-01-19T06:32:02.881Z,1.45
2023-01-19T06:33:02.680Z,1.44
2023-01-19T06:34:02.685Z,1.42
2023-01-19T06:35:02.221Z,1.46
2023-01-19T06:36:02.480Z,1.44
2023-01-19T06:37:02.288Z,1.45
2023-01-19T06:38:02.343Z,1.48
2023-01-19T06:39:02.518Z,1.48
2023-01-19T06:40:02.528Z,1.52
2023-01-19T06:41:02.193Z,1.52
2023-01-19T06:42:02.178Z,1.55
2023-01-19T06:43:02.582Z,1.57
2023-01-19T06:44:02.196Z,1.59
2023-01-19T06:45:02.197Z,1.59
2023-01-19T06:46:02.249Z,1.56
2023-01-19T06:47:15.685Z,1.59
2023-01-19T06:48:02.243Z,1.62
2023-01-19T06:49:02.246Z,1.60
2023-01-19T06:50:02.273Z,1.63
2023-01-19T06:51:02.285Z,1.62
2023-01-19T06:52:02.237Z,1.63
2023-01-19T06:53:02.832Z,1.64
2023-01-19T06:54:02.305Z,1.60
2023-01-19T06:55:02.326Z,1.60
2023-01-19T06:56:03.098Z,1.62
2023-01-19T06:57:02.824Z,1.63
2023-01-19T06:58:02.362Z,1.57
2023-01-19T06:59:02.086Z,1.59
2023-01-19T07:00:02.092Z,1.57
2023-01-19T07:01:02.392Z,1.59
2023-01-19T07:02:26.399Z,1.55
2023-01-19T07:03:02.608Z,1.56
2023-01-19T07:04:02.051Z,1.55
2023-01-19T07:05:02.458Z,1.55
2023-01-19T07:06:02.327Z,1.55
2023-01-19T07:07:02.316Z,1.56
2023-01-19T07:08:02.489Z,1.53
2023-01-19T07:09:02.025Z,1.55
2023-01-19T07:10:02.179Z,1.56
2023-01-19T07:11:26.318Z,1.56
2023-01-19T07:12:01.978Z,1.57
2023-01-19T07:13:02.516Z,1.59
2023-01-19T07:14:02.009Z,1.56
2023-01-19T07:15:01.975Z,1.53
2023-01-19T07:16:01.988Z,1.53
2023-01-19T07:17:01.966Z,1.46
2023-01-19T07:18:01.957Z,1.45
2023-01-19T07:19:01.961Z,1.44
2023-01-19T07:20:01.960Z,1.31
2023-01-19T07:21:01.969Z,1.31
2023-01-19T07:22:01.953Z,1.27
2023-01-19T07:23:02.348Z,1.28
2023-01-19T07:24:02.065Z,1.26
2023-01-19T07:25:02.071Z,1.28
2023-01-19T07:26:01.905Z,1.24
2023-01-19T07:27:01.896Z,1.23
2023-01-19T07:28:02.446Z,1.23
2023-01-19T07:29:02.644Z,1.18
2023-01-19T07:30:02.263Z,1.20
2023-01-19T07:31:02.093Z,1.18
2023-01-19T07:32:02.653Z,1.23
2023-01-19T07:33:02.214Z,1.18
2023-01-19T07:34:02.122Z,1.18
2023-01-19T07:35:01.929Z,1.18
2023-01-19T07:36:02.268Z,1.21
2023-01-19T07:37:02.674Z,1.23
2023-01-19T07:38:02.842Z,1.21
2023-01-19T07:39:02.119Z,1.27
2023-01-19T07:40:02.374Z,1.27
2023-01-19T07:41:01.963Z,1.30
2023-01-19T07:42:02.099Z,1.34
2023-01-19T07:43:02.521Z,1.31
2023-01-19T07:44:01.916Z,1.31
2023-01-19T07:45:01.988Z,1.34
2023-01-19T07:46:02.046Z,1.34
2023-01-19T07:47:02.627Z,1.39
2023-01-19T07:48:01.783Z,1.42
2023-01-19T07:49:01.750Z,1.46
2023-01-19T07:50:01.759Z,1.44
2023-01-19T07:51:01.771Z,1.46
2023-01-19T07:52:01.759Z,1.45
2023-01-19T07:53:02.287Z,1.41
2023-01-19T07:54:01.856Z,1.38
2023-01-19T07:55:01.993Z,1.39
2023-01-19T07:56:02.015Z,1.38
2023-01-19T07:57:01.731Z,1.38
2023-01-19T07:58:01.802Z,1.36
2023-01-19T07:59:02.085Z,1.36
2023-01-19T08:00:02.294Z,1.36
2023-01-19T08:01:02.264Z,1.36
2023-01-19T08:02:01.865Z,1.36
2023-01-19T08:03:02.229Z,1.31
2023-01-19T08:04:02.338Z,1.35
2023-01-19T08:05:02.461Z,1.31
2023-01-19T08:06:01.672Z,1.36
2023-01-19T08:07:01.673Z,1.38
2023-01-19T08:08:02.173Z,1.38
2023-01-19T08:09:02.563Z,1.38
2023-01-19T08:10:02.162Z,1.42
2023-01-19T08:11:02.291Z,1.45
2023-01-19T08:12:01.981Z,1.48
2023-01-19T08:13:02.950Z,1.49
2023-01-19T08:14:01.691Z,1.52
2023-01-19T08:15:01.755Z,1.55
2023-01-19T08:16:02.049Z,1.59
2023-01-19T08:17:02.213Z,1.63
2023-01-19T08:18:02.419Z,1.63
2023-01-19T08:19:01.568Z,1.63
2023-01-19T08:20:01.618Z,1.71
2023-01-19T08:21:01.879Z,1.67
2023-01-19T08:22:01.563Z,1.74
2023-01-19T08:23:03.099Z,1.74
2023-01-19T08:24:01.650Z,1.75
2023-01-19T08:25:01.647Z,1.74
2023-01-19T08:26:02.397Z,1.77
2023-01-19T08:27:01.673Z,1.78
2023-01-19T08:28:01.514Z,1.84
2023-01-19T08:29:01.504Z,1.85
2023-01-19T08:30:01.543Z,1.85
2023-01-19T08:31:11.129Z,1.82
2023-01-19T08:32:01.805Z,1.84
2023-01-19T08:33:02.097Z,1.89
2023-01-19T08:34:01.505Z,1.89
2023-01-19T08:35:01.512Z,1.87
2023-01-19T08:36:01.845Z,1.85
2023-01-19T08:37:01.854Z,1.85
2023-01-19T08:38:01.954Z,1.84
2023-01-19T08:39:01.971Z,1.84
2023-01-19T08:40:01.972Z,1.84
2023-01-19T08:41:01.592Z,1.84
2023-01-19T08:42:01.772Z,1.82
2023-01-19T08:43:02.053Z,1.81
2023-01-19T08:44:01.425Z,1.81
2023-01-19T08:45:01.413Z,1.78
2023-01-19T08:46:01.640Z,1.82
2023-01-19T08:47:01.412Z,1.85
2023-01-19T08:48:01.735Z,1.87
2023-01-19T08:49:02.038Z,1.85
2023-01-19T08:50:01.453Z,1.84
2023-01-19T08:51:01.460Z,1.81
2023-01-19T08:52:02.178Z,1.82
2023-01-19T08:53:02.599Z,1.85
2023-01-19T08:54:01.659Z,1.82
2023-01-19T08:55:01.888Z,1.89
2023-01-19T08:56:01.381Z,1.85
2023-01-19T08:57:01.476Z,1.85
2023-01-19T08:58:02.201Z,1.84
2023-01-19T08:59:09.762Z,1.84
2023-01-19T09:00:01.654Z,1.80
2023-01-19T09:01:03.127Z,1.85
2023-01-19T09:02:02.285Z,1.82
2023-01-19T09:03:02.475Z,1.81
2023-01-19T09:04:01.345Z,1.87
2023-01-19T09:05:01.936Z,1.84
2023-01-19T09:06:02.315Z,1.87
2023-01-19T09:07:02.215Z,1.92
2023-01-19T09:08:01.697Z,1.92
2023-01-19T09:09:01.345Z,1.92
2023-01-19T09:10:01.287Z,1.91
2023-01-19T09:11:01.301Z,1.91
2023-01-19T09:12:01.272Z,1.89
2023-01-19T09:13:01.223Z,1.85
2023-01-19T09:14:01.222Z,1.89
2023-01-19T09:15:01.254Z,1.84
2023-01-19T09:16:01.231Z,1.85
2023-01-19T09:17:01.211Z,1.84
2023-01-19T09:18:01.729Z,1.84
2023-01-19T09:19:01.225Z,1.87
2023-01-19T09:20:01.246Z,1.89
2023-01-19T09:21:01.215Z,1.87
2023-01-19T09:22:01.240Z,1.87
2023-01-19T09:23:01.219Z,1.89
2023-01-19T09:24:01.305Z,1.85
2023-01-19T09:25:01.248Z,1.85
2023-01-19T09:26:01.258Z,1.93
2023-01-19T09:27:01.406Z,1.91
2023-01-19T09:28:01.642Z,1.93
2023-01-19T09:29:01.415Z,1.95
2023-01-19T09:30:01.417Z,1.95
2023-01-19T09:31:01.531Z,1.99
2023-01-19T09:32:01.410Z,2.04
2023-01-19T09:33:01.449Z,1.97
2023-01-19T09:34:01.467Z,2.00
2023-01-19T09:35:01.085Z,1.99
2023-01-19T09:36:01.097Z,1.97
2023-01-19T09:37:01.436Z,1.99
2023-01-19T09:38:01.662Z,1.93
2023-01-19T09:39:01.055Z,1.93
2023-01-19T09:40:01.152Z,1.95
2023-01-19T09:41:01.075Z,1.95
2023-01-19T09:42:01.038Z,1.97
2023-01-19T09:43:01.057Z,2.00
2023-01-19T09:44:01.083Z,1.99
2023-01-19T09:45:01.082Z,2.01
2023-01-19T09:46:01.019Z,1.99
2023-01-19T09:47:01.024Z,2.00
2023-01-19T09:48:01.299Z,1.99
2023-01-19T09:49:01.019Z,2.01
2023-01-19T09:50:01.163Z,2.01
2023-01-19T09:51:01.252Z,1.99
2023-01-19T09:52:01.003Z,1.97
2023-01-19T09:53:01.555Z,1.93
2023-01-19T09:54:00.995Z,1.92
2023-01-19T09:55:00.960Z,1.97
2023-01-19T09:56:01.470Z,1.97
2023-01-19T09:57:01.069Z,1.99
2023-01-19T09:58:01.402Z,1.99
2023-01-19T09:59:00.918Z,2.03
2023-01-19T10:00:01.087Z,2.07
2023-01-19T10:01:01.069Z,2.03
2023-01-19T10:02:01.830Z,2.06
2023-01-19T10:03:01.512Z,2.01
2023-01-19T10:04:01.107Z,2.01
2023-01-19T10:05:01.527Z,2.01
2023-01-19T10:06:00.888Z,2.04
2023-01-19T10:07:00.899Z,1.97
2023-01-19T10:08:01.247Z,2.00
2023-01-19T10:09:01.146Z,1.99
2023-01-19T10:10:00.855Z,1.93
2023-01-19T10:11:00.846Z,1.97
2023-01-19T10:12:00.872Z,1.95
2023-01-19T10:13:01.229Z,1.91
2023-01-19T10:14:00.915Z,1.87
2023-01-19T10:15:00.815Z,1.91
2023-01-19T10:16:00.836Z,1.87
2023-01-19T10:17:00.815Z,1.87
2023-01-19T10:18:01.162Z,1.82
2023-01-19T10:19:00.809Z,1.82
2023-01-19T10:20:00.835Z,1.75
2023-01-19T10:21:00.801Z,1.75
2023-01-19T10:22:00.832Z,1.73
2023-01-19T10:23:01.118Z,1.74
2023-01-19T10:24:00.850Z,1.71
2023-01-19T10:25:00.761Z,1.69
2023-01-19T10:26:00.940Z,1.69
2023-01-19T10:27:00.898Z,1.66
2023-01-19T10:28:00.795Z,1.64
2023-01-19T10:29:00.730Z,1.63
2023-01-19T10:30:01.111Z,1.63
2023-01-19T10:31:01.090Z,1.59
2023-01-19T10:32:01.055Z,1.59
2023-01-19T10:33:01.292Z,1.60
2023-01-19T10:34:01.004Z,1.63
2023-01-19T10:35:00.720Z,1.64
2023-01-19T10:36:01.005Z,1.67
2023-01-19T10:37:00.698Z,1.74
2023-01-19T10:38:00.702Z,1.77
2023-01-19T10:39:01.026Z,1.80
2023-01-19T10:40:00.931Z,1.82
2023-01-19T10:41:00.673Z,1.87
2023-01-19T10:42:01.226Z,1.92
2023-01-19T10:43:01.683Z,1.93
2023-01-19T10:44:00.816Z,2.03
2023-01-19T10:45:00.912Z,2.06
2023-01-19T10:46:01.316Z,2.07
2023-01-19T10:47:00.667Z,2.12
2023-01-19T10:48:01.268Z,2.17
2023-01-19T10:49:00.718Z,2.21
2023-01-19T10:50:01.250Z,2.18
2023-01-19T10:51:00.648Z,2.22
2023-01-19T10:52:00.616Z,2.22
2023-01-19T10:53:00.973Z,2.25
2023-01-19T10:54:00.771Z,2.25
2023-01-19T10:55:01.317Z,2.35
2023-01-19T10:56:01.137Z,2.35
2023-01-19T10:57:01.294Z,2.39
2023-01-19T10:58:00.941Z,2.39
2023-01-19T10:59:00.539Z,2.47
2023-01-19T11:00:00.563Z,2.48
2023-01-19T11:01:00.648Z,2.47
2023-01-19T11:02:00.666Z,2.51
2023-01-19T11:03:00.926Z,2.53
2023-01-19T11:04:00.611Z,2.58
2023-01-19T11:05:00.635Z,2.57
2023-01-19T11:06:00.558Z,2.55
2023-01-19T11:07:00.547Z,2.57
2023-01-19T11:08:00.531Z,2.54
2023-01-19T11:09:00.547Z,2.58
2023-01-19T11:10:00.534Z,2.63
2023-01-19T11:11:00.573Z,2.65
2023-01-19T11:12:00.592Z,2.65
2023-01-19T11:13:01.056Z,2.68
2023-01-19T11:14:00.531Z,2.71
2023-01-19T11:15:00.608Z,2.75
2023-01-19T11:16:00.665Z,2.76
2023-01-19T11:17:00.662Z,2.81
2023-01-19T11:18:00.654Z,2.82
2023-01-19T11:19:00.434Z,2.82
2023-01-19T11:20:00.686Z,2.86
2023-01-19T11:21:00.415Z,2.86
2023-01-19T11:22:00.709Z,2.91
2023-01-19T11:23:01.024Z,2.91
2023-01-19T11:24:00.403Z,2.93
2023-01-19T11:25:00.392Z,2.94
2023-01-19T11:26:00.651Z,2.93
2023-01-19T11:27:00.762Z,2.91
2023-01-19T11:28:00.462Z,2.91
2023-01-19T11:29:00.803Z,2.91
2023-01-19T11:30:00.384Z,2.94
2023-01-19T11:31:00.838Z,2.94
2023-01-19T11:32:00.726Z,2.90
2023-01-19T11:33:00.814Z,2.94
2023-01-19T11:34:00.849Z,2.99
2023-01-19T11:35:00.883Z,2.94
2023-01-19T11:36:00.324Z,2.99
2023-01-19T11:37:00.328Z,3.02
2023-01-19T11:38:00.329Z,3.05
2023-01-19T11:39:00.344Z,3.07
2023-01-19T11:40:00.428Z,2.99
2023-01-19T11:41:00.416Z,3.02
2023-01-19T11:42:00.575Z,3.00
2023-01-19T11:43:00.745Z,3.04
2023-01-19T11:44:00.529Z,3.02
2023-01-19T11:45:00.585Z,3.05
2023-01-19T11:46:00.707Z,2.97
2023-01-19T11:47:00.488Z,3.00
2023-01-19T11:48:00.765Z,2.99
2023-01-19T11:49:00.481Z,3.00
2023-01-19T11:50:00.832Z,2.99
2023-01-19T11:51:00.215Z,3.00
2023-01-19T11:52:00.633Z,3.00
2023-01-19T11:53:00.437Z,2.96
2023-01-19T11:54:01.044Z,2.97
2023-01-19T11:55:00.267Z,2.94
2023-01-19T11:56:00.359Z,3.00
2023-01-19T11:57:00.495Z,3.02
2023-01-19T11:58:00.620Z,2.99
2023-01-19T11:59:00.975Z,2.94
2023-01-19T12:00:00.896Z,3.02
2023-01-19T12:01:00.219Z,2.93
2023-01-19T12:02:00.355Z,2.96
2023-01-19T12:03:01.257Z,2.94
2023-01-19T12:04:00.168Z,2.96
2023-01-19T12:05:00.349Z,2.91
2023-01-19T12:06:00.325Z,2.91
2023-01-19T12:07:00.332Z,2.90
2023-01-19T12:08:00.770Z,2.90
2023-01-19T12:09:00.564Z,2.91
2023-01-19T12:10:00.656Z,2.90
2023-01-19T12:11:00.375Z,2.90
2023-01-19T12:12:00.569Z,2.91
2023-01-19T12:13:00.426Z,2.91
2023-01-19T12:14:00.409Z,2.96
2023-01-19T12:15:00.125Z,2.99
2023-01-19T12:16:00.124Z,2.97
2023-01-19T12:17:00.215Z,2.97
2023-01-19T12:18:00.630Z,2.97
2023-01-19T12:19:00.051Z,2.91
2023-01-19T12:20:00.307Z,2.93
2023-01-19T12:21:02.820Z,2.94
2023-01-19T12:22:00.260Z,2.94
2023-01-19T12:23:00.257Z,2.91
2023-01-19T12:24:00.002Z,2.93
2023-01-19T12:25:00.522Z,2.97
2023-01-19T12:26:00.464Z,2.94
2023-01-19T12:27:00.496Z,3.00
2023-01-19T12:28:00.508Z,3.00
2023-01-19T12:29:00.504Z,2.97
2023-01-19T12:30:00.107Z,3.02
2023-01-19T12:31:00.389Z,3.04
2023-01-19T12:32:00.663Z,3.09
2023-01-19T12:33:00.106Z,3.09
2023-01-19T12:34:00.133Z,3.09
2023-01-19T12:35:00.149Z,3.07
2023-01-19T12:36:00.540Z,3.07
2023-01-19T12:36:59.934Z,3.12
2023-01-19T12:37:59.933Z,3.11
2023-01-19T12:39:00.142Z,3.07
2023-01-19T12:40:00.785Z,3.11
2023-01-19T12:40:59.941Z,3.09
2023-01-19T12:42:00.275Z,3.12
2023-01-19T12:42:59.961Z,3.14
2023-01-19T12:44:00.883Z,3.11
2023-01-19T12:45:00.394Z,3.11
2023-01-19T12:45:59.908Z,3.14
2023-01-19T12:47:00.609Z,3.11
2023-01-19T12:48:00.000Z,3.11
2023-01-19T12:48:59.848Z,3.07
2023-01-19T12:50:00.225Z,3.04
2023-01-19T12:51:00.637Z,3.07
2023-01-19T12:51:59.819Z,3.11
2023-01-19T12:52:59.863Z,3.09
2023-01-19T12:53:59.836Z,3.08
2023-01-19T12:54:59.846Z,3.09
2023-01-19T12:55:59.903Z,3.09
2023-01-19T12:57:00.088Z,3.15
2023-01-19T12:57:59.867Z,3.12
2023-01-19T12:59:00.177Z,3.14
2023-01-19T13:00:00.123Z,3.15
2023-01-19T13:00:59.835Z,3.12
2023-01-19T13:02:00.359Z,3.18
2023-01-19T13:03:00.359Z,3.18
2023-01-19T13:04:00.345Z,3.15
2023-01-19T13:04:59.764Z,3.12
2023-01-19T13:06:00.341Z,3.08
2023-01-19T13:07:00.370Z,3.05
2023-01-19T13:08:00.168Z,3.05
2023-01-19T13:08:59.976Z,3.02
2023-01-19T13:09:59.966Z,3.02
2023-01-19T13:10:59.716Z,3.04
2023-01-19T13:12:00.913Z,3.00
2023-01-19T13:13:00.240Z,2.99
2023-01-19T13:14:00.384Z,3.02
2023-01-19T13:15:00.690Z,3.04
2023-01-19T13:16:00.099Z,3.04
2023-01-19T13:16:59.653Z,3.00
2023-01-19T13:18:00.417Z,3.07
2023-01-19T13:18:59.801Z,3.07
2023-01-19T13:20:00.697Z,3.02